createdAt,value
2022-10-28T00:01:13.531Z,18.57
2022-10-28T00:05:15.566Z,17.37
2022-10-28T00:09:17.416Z,17.83
2022-10-28T00:13:19.213Z,17.23
2022-10-28T00:17:21.172Z,16.43
2022-10-28T00:21:26.383Z,16.87
2022-10-28T00:25:28.417Z,16.43
2022-10-28T00:29:32.181Z,16.97
2022-10-28T00:33:34.303Z,17.90
2022-10-28T00:37:36.206Z,19.60
2022-10-28T00:41:40.872Z,15.97
2022-10-28T00:45:42.939Z,17.10
2022-10-28T00:49:46.362Z,16.83
2022-10-28T00:53:48.410Z,21.27
2022-10-28T00:57:50.565Z,17.43
2022-10-28T01:01:53.018Z,17.27
2022-10-28T01:05:55.162Z,19.60
2022-10-28T01:09:57.199Z,18.20
2022-10-28T01:14:05.771Z,16.80
2022-10-28T01:18:20.738Z,19.33
2022-10-28T01:23:01.319Z,19.10
2022-10-28T01:27:31.684Z,18.60
2022-10-28T01:32:06.363Z,15.93
2022-10-28T01:36:14.890Z,17.67
2022-10-28T01:40:39.539Z,16.60
2022-10-28T01:44:52.793Z,17.70
2022-10-28T01:48:58.913Z,16.77
2022-10-28T01:53:09.993Z,17.67
2022-10-28T01:57:12.591Z,17.33
2022-10-28T02:01:20.870Z,19.10
2022-10-28T02:06:04.712Z,19.30
2022-10-28T02:10:17.035Z,21.90
2022-10-28T02:14:39.689Z,17.87
2022-10-28T02:18:57.448Z,19.73
2022-10-28T02:23:22.471Z,18.53
2022-10-28T02:27:40.699Z,19.97
2022-10-28T02:31:50.116Z,21.47
2022-10-28T02:35:56.351Z,19.87
2022-10-28T02:40:03.033Z,20.30
2022-10-28T02:44:10.503Z,21.13
2022-10-28T02:48:27.192Z,19.73
2022-10-28T02:52:30.335Z,20.63
2022-10-28T02:56:35.621Z,21.63
2022-10-28T03:00:37.665Z,20.57
2022-10-28T03:04:39.445Z,21.17
2022-10-28T03:08:41.492Z,24.97
2022-10-28T03:12:43.316Z,20.47
2022-10-28T03:16:45.174Z,22.83
2022-10-28T03:20:47.683Z,22.40
2022-10-28T03:24:49.508Z,21.30
2022-10-28T03:28:51.390Z,20.87
2022-10-28T03:32:54.048Z,20.50
2022-10-28T03:36:55.885Z,23.37
2022-10-28T03:40:57.670Z,22.57
2022-10-28T03:44:59.994Z,23.17
2022-10-28T03:49:01.808Z,22.77
2022-10-28T03:53:26.325Z,23.73
2022-10-28T03:57:33.555Z,26.90
2022-10-28T04:01:35.508Z,23.70
2022-10-28T04:05:37.621Z,24.23
2022-10-28T04:09:39.439Z,25.00
2022-10-28T04:13:41.330Z,24.50
2022-10-28T04:17:43.149Z,26.73
2022-10-28T04:21:45.256Z,25.63
2022-10-28T04:25:47.624Z,26.23
2022-10-28T04:29:49.456Z,24.93
2022-10-28T04:33:51.293Z,27.70
2022-10-28T04:37:53.302Z,27.63
2022-10-28T04:41:56.549Z,26.37
2022-10-28T04:45:58.994Z,29.57
2022-10-28T04:50:01.066Z,28.83
2022-10-28T04:54:03.025Z,27.20
2022-10-28T04:58:05.723Z,28.23
2022-10-28T05:02:07.757Z,26.90
2022-10-28T05:06:09.996Z,30.37
2022-10-28T05:10:12.398Z,29.40
2022-10-28T05:14:14.265Z,27.87
2022-10-28T05:18:17.641Z,26.67
2022-10-28T05:22:25.727Z,26.40
2022-10-28T05:26:27.635Z,28.20
2022-10-28T05:30:30.840Z,27.77
2022-10-28T05:34:32.874Z,29.27
2022-10-28T05:38:34.734Z,30.10
2022-10-28T05:42:43.409Z,25.57
2022-10-28T05:46:45.262Z,28.97
2022-10-28T05:50:47.256Z,29.03
2022-10-28T05:55:01.551Z,30.60
2022-10-28T06:03:42.645Z,27.63
2022-10-28T06:07:45.054Z,30.43
2022-10-28T06:11:45.674Z,29.07
2022-10-28T06:15:54.721Z,26.63
2022-10-28T06:19:56.756Z,27.13
2022-10-28T06:23:58.732Z,24.53
2022-10-28T06:28:06.914Z,25.83
2022-10-28T06:32:12.236Z,23.83
2022-10-28T06:36:14.028Z,23.43
2022-10-28T06:40:16.007Z,21.13
2022-10-28T06:44:17.812Z,21.57
2022-10-28T06:48:22.048Z,22.60
2022-10-28T06:52:38.212Z,21.10
2022-10-28T06:56:46.149Z,22.33
2022-10-28T07:01:44.456Z,21.57
2022-10-28T07:06:00.296Z,19.43
2022-10-28T07:10:15.311Z,18.77
2022-10-28T07:14:42.082Z,21.30
2022-10-28T07:19:01.732Z,19.13
2022-10-28T07:23:38.579Z,18.20
2022-10-28T07:44:02.810Z,14.37
2022-10-28T07:48:22.456Z,15.47
2022-10-28T07:52:24.641Z,17.07
2022-10-28T07:56:26.903Z,15.93
2022-10-28T08:00:47.971Z,16.27
2022-10-28T08:05:02.571Z,15.17
2022-10-28T08:09:04.621Z,13.27
2022-10-28T08:13:07.241Z,13.30
2022-10-28T08:17:09.090Z,12.70
2022-10-28T08:21:45.223Z,17.30
2022-10-28T08:32:19.326Z,13.17
2022-10-28T08:36:27.627Z,13.30
2022-10-28T08:41:33.828Z,12.07
2022-10-28T08:45:55.500Z,12.53
2022-10-28T08:50:18.221Z,12.00
2022-10-28T08:54:50.704Z,11.33
2022-10-28T08:59:17.661Z,11.47
2022-10-28T09:03:40.211Z,10.53
2022-10-28T09:07:42.127Z,12.17
2022-10-28T09:12:08.849Z,13.07
2022-10-28T09:16:40.798Z,13.00
2022-10-28T09:26:29.192Z,11.67
2022-10-28T09:31:10.608Z,11.20
2022-10-28T09:36:06.291Z,10.40
2022-10-28T09:40:28.742Z,11.43
2022-10-28T09:54:53.857Z,11.37
2022-10-28T09:59:02.421Z,10.37
2022-10-28T10:03:12.664Z,10.93
2022-10-28T10:07:40.985Z,10.53
2022-10-28T10:11:49.494Z,13.00
2022-10-28T10:16:33.417Z,11.70
2022-10-28T10:21:16.335Z,13.60
2022-10-28T10:25:18.569Z,9.47
2022-10-28T10:29:21.162Z,12.10
2022-10-28T10:33:38.100Z,15.40
2022-10-28T10:38:26.836Z,10.33
2022-10-28T10:42:34.778Z,9.37
2022-10-28T10:46:44.238Z,12.60
2022-10-28T10:50:49.650Z,11.23
2022-10-28T10:55:29.311Z,9.93
2022-10-28T10:59:43.231Z,10.67
2022-10-28T11:04:50.684Z,9.30
2022-10-28T11:09:31.502Z,11.53
2022-10-28T11:13:54.955Z,11.37
2022-10-28T11:18:24.738Z,10.33
2022-10-28T11:28:10.838Z,12.30
2022-10-28T11:33:28.997Z,15.43
2022-10-28T11:39:09.786Z,10.13
2022-10-28T11:44:42.224Z,9.77
2022-10-28T11:54:10.705Z,10.23
2022-10-28T11:58:31.987Z,8.93
2022-10-28T12:02:59.456Z,10.73
2022-10-28T12:07:23.503Z,12.13
2022-10-28T12:12:02.615Z,10.40
2022-10-28T12:21:37.167Z,11.57
2022-10-28T12:25:48.578Z,10.80
2022-10-28T12:31:40.057Z,10.17
2022-10-28T12:36:07.714Z,15.00
2022-10-28T12:40:39.610Z,11.17
2022-10-28T12:44:43.652Z,11.47
2022-10-28T12:50:14.675Z,11.80
2022-10-28T13:06:58.867Z,12.27
2022-10-28T13:16:13.270Z,12.33
2022-10-28T13:20:32.256Z,14.03
2022-10-28T13:25:20.468Z,12.03
2022-10-28T13:29:31.165Z,12.60
2022-10-28T13:33:35.578Z,11.43
2022-10-28T13:37:40.623Z,19.07
2022-10-28T13:41:48.769Z,10.80
2022-10-28T13:45:55.507Z,12.70
2022-10-28T13:50:06.546Z,11.40
2022-10-28T13:54:38.880Z,11.83
2022-10-28T13:58:40.797Z,11.20
2022-10-28T14:03:00.131Z,12.77
2022-10-28T14:07:12.650Z,15.37
2022-10-28T14:11:23.341Z,10.43
2022-10-28T14:15:45.596Z,11.57
2022-10-28T14:19:51.410Z,12.90
2022-10-28T14:24:09.943Z,10.83
2022-10-28T14:28:33.110Z,13.73
2022-10-28T14:33:19.020Z,15.03
2022-10-28T14:38:01.957Z,13.77
2022-10-28T14:42:21.883Z,13.43
2022-10-28T14:47:06.601Z,13.53
2022-10-28T14:51:30.104Z,15.87
2022-10-28T14:55:32.424Z,13.43
2022-10-28T14:59:40.731Z,13.90
2022-10-28T15:04:04.125Z,13.00
2022-10-28T15:08:06.066Z,15.13
2022-10-28T15:12:16.852Z,16.33
2022-10-28T15:16:24.890Z,16.33
2022-10-28T15:20:37.582Z,14.67
2022-10-28T15:24:43.138Z,15.23
2022-10-28T15:28:56.207Z,14.17
2022-10-28T15:33:19.564Z,15.47
2022-10-28T15:37:25.875Z,15.07
2022-10-28T15:41:35.186Z,15.83
2022-10-28T15:45:42.321Z,12.93
2022-10-28T15:49:46.566Z,16.03
2022-10-28T15:53:55.469Z,16.20
2022-10-28T15:58:19.665Z,17.87
2022-10-28T16:02:45.074Z,15.17
2022-10-28T16:06:47.051Z,15.80
2022-10-28T16:11:12.019Z,15.17
2022-10-28T16:15:14.256Z,17.13
2022-10-28T16:19:28.250Z,20.30
2022-10-28T16:23:38.405Z,14.53
2022-10-28T16:27:40.310Z,17.03
2022-10-28T16:31:42.391Z,16.93
2022-10-28T16:35:44.221Z,16.50
2022-10-28T16:39:46.051Z,16.27
2022-10-28T16:43:50.384Z,16.83
2022-10-28T16:47:52.615Z,15.37
2022-10-28T16:51:54.739Z,16.17
2022-10-28T16:55:59.285Z,15.50
2022-10-28T17:00:01.518Z,15.77
2022-10-28T17:04:03.508Z,16.20
2022-10-28T17:08:08.839Z,16.93
2022-10-28T17:12:23.082Z,17.90
2022-10-28T17:16:25.417Z,16.73
2022-10-28T17:20:27.388Z,18.23
2022-10-28T17:24:29.241Z,17.87
2022-10-28T17:28:31.132Z,17.83
2022-10-28T17:32:33.075Z,17.17
2022-10-28T17:36:34.894Z,16.73
2022-10-28T17:40:36.919Z,18.63
2022-10-28T17:44:38.810Z,17.10
2022-10-28T17:48:40.758Z,20.40
2022-10-28T17:52:50.421Z,17.97
2022-10-28T17:57:04.336Z,17.33
2022-10-28T18:01:08.279Z,17.57
2022-10-28T18:05:10.398Z,17.50
2022-10-28T18:09:13.157Z,14.77
2022-10-28T18:13:49.864Z,16.23
2022-10-28T18:17:57.762Z,16.33
2022-10-28T18:21:59.843Z,17.20
2022-10-28T18:26:30.459Z,15.20
2022-10-28T18:30:32.525Z,15.30
2022-10-28T18:34:40.072Z,17.30
2022-10-28T18:38:42.261Z,17.77
2022-10-28T18:42:44.239Z,16.80
2022-10-28T18:46:47.655Z,17.37
2022-10-28T18:51:06.835Z,17.70
2022-10-28T18:55:09.265Z,16.20
2022-10-28T18:59:31.223Z,16.53
2022-10-28T19:03:35.760Z,17.50
2022-10-28T19:07:39.742Z,16.67
2022-10-28T19:11:41.684Z,17.07
2022-10-28T19:15:47.925Z,16.40
2022-10-28T19:19:51.642Z,20.13
2022-10-28T19:23:56.419Z,18.60
2022-10-28T19:28:02.034Z,18.67
2022-10-28T19:32:09.774Z,16.73
2022-10-28T19:36:30.301Z,17.93
2022-10-28T19:40:32.453Z,17.20
2022-10-28T19:44:40.059Z,16.00
2022-10-28T19:48:47.903Z,14.03
2022-10-28T19:52:49.943Z,18.87
2022-10-28T20:01:14.476Z,18.17
2022-10-28T20:05:38.260Z,18.50
2022-10-28T20:09:40.291Z,16.80
2022-10-28T20:13:44.812Z,16.73
2022-10-28T20:17:47.138Z,15.70
2022-10-28T20:21:52.295Z,17.30
2022-10-28T20:26:03.961Z,16.33
2022-10-28T20:30:21.387Z,16.30
2022-10-28T20:34:23.846Z,16.83
2022-10-28T20:38:28.141Z,16.73
2022-10-28T20:42:32.085Z,19.23
2022-10-28T20:46:37.256Z,16.17
2022-10-28T20:50:39.368Z,17.77
2022-10-28T20:54:41.228Z,15.73
2022-10-28T20:58:43.501Z,15.60
2022-10-28T21:02:45.809Z,17.93
2022-10-28T21:06:56.731Z,18.03
2022-10-28T21:11:05.070Z,18.53
2022-10-28T21:15:08.141Z,15.67
2022-10-28T21:19:11.225Z,16.73
2022-10-28T21:23:13.450Z,16.67
2022-10-28T21:27:19.737Z,17.87
2022-10-28T21:31:21.809Z,17.30
2022-10-28T21:35:28.054Z,17.83
2022-10-28T21:39:29.968Z,16.93
2022-10-28T21:43:34.592Z,16.80
2022-10-28T21:47:36.467Z,19.30
2022-10-28T21:51:38.317Z,17.27
2022-10-28T21:55:46.507Z,18.93
2022-10-28T21:59:49.917Z,18.27
2022-10-28T22:03:52.242Z,21.80
2022-10-28T22:07:56.771Z,19.67
2022-10-28T22:11:58.799Z,19.70
2022-10-28T22:16:04.039Z,16.60
2022-10-28T22:20:07.697Z,18.27
2022-10-28T22:24:09.707Z,21.83
2022-10-28T22:28:11.745Z,19.47
2022-10-28T22:32:16.066Z,18.13
2022-10-28T22:36:21.495Z,17.77
2022-10-28T22:40:23.465Z,18.97
2022-10-28T22:44:25.257Z,18.87
2022-10-28T22:48:27.403Z,16.93
2022-10-28T22:52:29.154Z,17.57
2022-10-28T22:56:31.080Z,19.03
2022-10-28T23:00:32.976Z,17.60
2022-10-28T23:04:34.937Z,22.83
2022-10-28T23:08:38.562Z,18.57
2022-10-28T23:12:40.432Z,18.10
2022-10-28T23:16:42.397Z,18.83
2022-10-28T23:20:44.245Z,18.23
2022-10-28T23:24:46.192Z,19.40
2022-10-28T23:28:54.253Z,17.97
2022-10-28T23:32:58.046Z,18.67
2022-10-28T23:36:59.874Z,16.37
2022-10-28T23:41:04.422Z,18.33
2022-10-28T23:45:07.602Z,20.73
2022-10-28T23:49:09.513Z,20.67
2022-10-28T23:53:11.377Z,17.60
2022-10-28T23:57:13.319Z,21.00
